Time;durP1;ratioP1;P1;durP2;ratioP2;P2;SDS_P1;SDS_P2;PMS_P1;PMS_P2;Temp;Humidity;BMP_temperature;BMP_pressure;BME280_temperature;BME280_humidity;BME280_pressure;Samples;Min_cycle;Max_cycle;Signal;HPM_P1;HPM_P2
2023/08/10 02:10:31;;;;;;;;;;;19.90;69.80;;;19.25;63.60;96438.00;5988224;22;3431928;-90
2023/08/10 02:13:00;;;;;;;;;;;19.90;69.70;;;19.23;63.54;96446.66;6106924;23;19931;-89
2023/08/10 02:15:29;;;;;;;;;;;19.90;69.60;;;19.21;63.80;96450.91;6083228;23;19921;-90
2023/08/10 02:17:59;;;;;;;;;;;19.90;69.80;;;19.19;63.59;96445.66;6083445;23;20364;-89
2023/08/10 02:20:30;;;;;;;;;;;19.90;69.90;;;19.18;63.98;96446.78;6084012;23;20279;-89
2023/08/10 02:23:01;;;;;;;;;;;19.90;70.00;;;19.19;63.98;96451.19;6083515;23;20300;-89
2023/08/10 02:25:32;;;;;;;;;;;19.90;70.10;;;19.20;64.06;96452.03;6082925;23;20245;-90
2023/08/10 02:28:01;;;;;;;;;;;19.90;70.00;;;19.22;63.96;96450.56;6083404;23;19921;-90
2023/08/10 02:30:30;;;;;;;;;;;19.90;70.10;;;19.21;63.74;96448.13;6083291;23;19932;-90
2023/08/10 02:33:00;;;;;;;;;;;19.90;70.10;;;19.21;63.82;96448.94;6082794;23;19944;-90
2023/08/10 02:35:28;;;;;;;;;;;19.90;70.10;;;19.21;64.00;96448.13;6082945;23;19921;-90
2023/08/10 02:37:57;;;;;;;;;;;19.90;70.00;;;19.22;63.72;96447.78;6083500;23;19921;-90
2023/08/10 02:40:27;;;;;;;;;;;19.90;70.00;;;19.22;63.73;96446.97;6083216;23;19921;-90
2023/08/10 02:42:58;;;;;;;;;;;19.90;69.90;;;19.18;63.92;96455.09;6082565;23;19932;-90
2023/08/10 02:45:27;;;;;;;;;;;19.90;69.90;;;19.12;63.77;96461.97;6106883;23;20337;-90
2023/08/10 02:47:57;;;;;;;;;;;19.80;70.10;;;19.07;64.00;96464.84;6082830;23;20260;-90
2023/08/10 02:50:28;;;;;;;;;;;19.80;70.40;;;19.05;64.26;96464.34;6083213;23;19921;-90
2023/08/10 02:52:57;;;;;;;;;;;19.70;70.50;;;19.05;64.26;96464.34;6082967;23;19928;-90
2023/08/10 02:55:27;;;;;;;;;;;19.70;70.60;;;19.05;64.09;96465.19;6082890;23;20261;-90
2023/08/10 02:57:58;;;;;;;;;;;19.70;70.50;;;19.06;64.13;96471.53;6083202;23;19925;-90
2023/08/10 03:00:28;;;;;;;;;;;19.70;70.40;;;19.07;64.22;96474.03;6083347;23;19928;-90
2023/08/10 03:02:58;;;;;;;;;;;19.70;70.50;;;19.10;64.16;96475.31;6083641;23;19925;-90
2023/08/10 03:05:28;;;;;;;;;;;19.80;70.40;;;19.10;63.92;96475.31;6082953;23;19928;-90
2023/08/10 03:07:58;;;;;;;;;;;19.80;70.00;;;19.08;63.87;96477.59;6083322;23;19932;-91
2023/08/10 03:10:29;;;;;;;;;;;19.80;70.10;;;19.09;63.95;96476.47;6083181;23;19928;-90
2023/08/10 03:13:02;;;;;;;;;;;19.70;70.10;;;19.10;64.20;96480.88;6083051;23;19928;-90
2023/08/10 03:15:32;;;;;;;;;;;19.80;70.20;;;19.10;64.17;96476.16;6082463;23;19932;-90
2023/08/10 03:18:03;;;;;;;;;;;19.80;70.20;;;19.11;64.00;96471.41;6106019;23;19927;-90
2023/08/10 03:20:34;;;;;;;;;;;19.80;70.10;;;19.10;63.95;96475.31;6106351;23;20371;-91
2023/08/10 03:23:06;;;;;;;;;;;19.80;70.80;;;19.09;63.63;96468.13;6107916;23;19973;-91
2023/08/10 03:25:40;;;;;;;;;;;19.70;69.90;;;19.07;63.83;96473.19;6106219;23;19928;-90
2023/08/10 03:28:13;;;;;;;;;;;19.80;70.00;;;19.09;63.86;96468.97;6083110;23;19928;-90
2023/08/10 03:30:44;;;;;;;;;;;19.70;69.90;;;19.06;63.94;96475.16;6083208;23;19932;-90
2023/08/10 03:33:15;;;;;;;;;;;19.70;69.80;;;19.04;63.76;96474.66;6082677;23;19928;-90
2023/08/10 03:35:48;;;;;;;;;;;19.70;69.90;;;19.03;64.04;96472.19;6082912;23;19921;-90
2023/08/10 03:38:20;;;;;;;;;;;19.70;70.00;;;19.04;64.03;96476.63;6107126;23;19921;-90
2023/08/10 03:40:53;;;;;;;;;;;19.80;70.10;;;19.06;64.20;96474.31;6083155;23;20237;-90
2023/08/10 03:43:31;;;;;;;;;;;19.80;70.10;;;19.07;63.86;96475.97;6083081;23;19928;-90
2023/08/10 03:46:05;;;;;;;;;;;19.80;69.90;;;19.06;63.74;96490.97;6105891;23;19925;-90
2023/08/10 03:48:40;;;;;;;;;;;19.80;69.80;;;19.04;63.71;96487.72;6083185;23;19921;-90
2023/08/10 03:51:16;;;;;;;;;;;19.70;69.80;;;19.06;63.89;96486.25;6083044;23;20348;-90
2023/08/10 03:53:55;;;;;;;;;;;19.70;69.80;;;19.06;63.87;96488.19;6106279;23;19921;-90
2023/08/10 03:56:30;;;;;;;;;;;19.70;70.00;;;19.07;63.78;96481.50;6106147;23;19921;-90
2023/08/10 03:59:10;;;;;;;;;;;19.70;70.10;;;19.07;63.95;96487.06;6083058;23;19928;-90
2023/08/10 04:01:43;;;;;;;;;;;19.80;69.90;;;19.07;63.85;96485.13;6105763;23;20237;-90
2023/08/10 04:04:19;;;;;;;;;;;19.80;69.90;;;19.07;63.46;96485.13;6082785;23;19921;-90
2023/08/10 04:06:57;;;;;;;;;;;19.70;69.80;;;19.07;63.57;96481.50;6105939;23;20363;-90
2023/08/10 04:09:33;;;;;;;;;;;19.70;69.80;;;19.05;63.81;96483.78;6082062;23;19921;-90
2023/08/10 04:12:09;;;;;;;;;;;19.70;69.90;;;19.06;63.50;96485.41;6082292;23;19925;-90
2023/08/10 04:14:51;;;;;;;;;;;19.70;69.90;;;19.06;63.57;96490.97;6105427;23;19924;-90
2023/08/10 04:17:32;;;;;;;;;;;19.70;69.90;;;19.07;64.06;96499.00;6106872;23;19921;-90
2023/08/10 04:20:09;;;;;;;;;;;19.70;70.00;;;19.07;63.63;96496.22;6106359;23;19925;-90
2023/08/10 04:22:43;;;;;;;;;;;19.70;69.80;;;19.07;63.97;96500.94;6083081;23;19921;-90
2023/08/10 04:25:25;;;;;;;;;;;19.70;69.80;;;19.06;63.84;96496.50;6107441;23;19928;-90
2023/08/10 04:28:04;;;;;;;;;;;19.80;69.80;;;19.07;63.92;96496.22;6106835;23;19921;-91
2023/08/10 04:30:51;;;;;;;;;;;19.80;69.80;;;19.07;63.75;96503.69;6084082;23;20332;-91
2023/08/10 04:33:40;;;;;;;;;;;19.80;69.80;;;19.07;63.75;96498.16;6106948;23;19928;-91
2023/08/10 04:36:25;;;;;;;;;;;19.70;70.80;;;19.05;63.73;96492.09;6109045;23;19921;-90
2023/08/10 04:39:11;;;;;;;;;;;19.80;69.80;;;19.07;63.96;96503.69;6109171;23;19921;-90
2023/08/10 04:41:47;;;;;;;;;;;19.70;70.10;;;19.06;63.65;96497.34;6105597;23;19921;-90
2023/08/10 04:44:31;;;;;;;;;;;19.80;70.10;;;19.07;64.19;96492.59;6109370;23;19925;-90
2023/08/10 04:47:20;;;;;;;;;;;19.70;70.20;;;19.07;64.07;96493.44;6107768;23;19928;-90
2023/08/10 04:49:57;;;;;;;;;;;19.70;70.20;;;19.08;63.88;96497.03;6083975;23;19944;-90
2023/08/10 04:52:37;;;;;;;;;;;19.80;70.10;;;19.08;64.20;96491.47;6107932;23;19947;-90
2023/08/10 04:55:18;;;;;;;;;;;19.70;70.30;;;19.10;64.28;96494.75;6106506;23;19921;-90
2023/08/10 04:58:00;;;;;;;;;;;19.70;70.40;;;19.10;64.04;96498.38;6084363;23;19921;-91
2023/08/10 05:00:46;;;;;;;;;;;19.80;70.40;;;19.11;64.18;96499.16;6130751;23;20336;-91
2023/08/10 05:03:41;;;;;;;;;;;19.80;70.20;;;19.12;64.16;96500.81;6108808;23;19921;-91
2023/08/10 05:06:28;;;;;;;;;;;19.80;70.30;;;19.13;64.42;96502.44;6107855;23;19921;-91
2023/08/10 05:09:09;;;;;;;;;;;19.80;70.40;;;19.13;64.03;96497.69;6109467;23;19921;-90
2023/08/10 05:11:45;;;;;;;;;;;19.80;70.30;;;19.15;64.06;96506.53;6083696;23;20332;-91
2023/08/10 05:14:23;;;;;;;;;;;19.80;70.30;;;19.14;64.34;96501.31;6106055;23;19928;-91
2023/08/10 05:17:16;;;;;;;;;;;19.80;70.40;;;19.14;64.14;96499.34;6108568;23;19928;-91
2023/08/10 05:20:17;;;;;;;;;;;19.90;70.60;;;19.16;64.04;96510.13;6083919;23;19975;-91
2023/08/10 05:23:12;;;;;;;;;;;19.80;70.40;;;19.16;64.39;96501.81;6083432;23;19921;-91
2023/08/10 05:26:27;;;;;;;;;;;19.90;70.50;;;19.19;64.11;96505.91;6106987;23;19921;-91
2023/08/10 05:29:41;;;;;;;;;;;19.80;70.30;;;19.17;64.38;96508.97;6108384;23;19925;-91
2023/08/10 05:42:10;;;;;;;;;;;19.90;70.40;;;19.22;64.12;96497.75;6107002;23;19922;-91
2023/08/10 05:44:58;;;;;;;;;;;19.90;70.50;;;19.23;64.04;96502.16;6106729;23;19921;-91
2023/08/10 05:47:44;;;;;;;;;;;19.90;70.40;;;19.26;63.92;96501.53;6084151;23;20344;-91
2023/08/10 05:50:34;;;;;;;;;;;19.90;70.40;;;19.26;64.02;96495.97;6087070;23;19921;-91
2023/08/10 05:53:18;;;;;;;;;;;19.90;70.70;;;19.28;63.94;96488.16;6107631;23;19928;-91
2023/08/10 05:56:16;;;;;;;;;;;20.00;70.30;;;19.34;64.09;96501.88;6107942;23;19932;-91
2023/08/10 05:59:18;;;;;;;;;;;20.00;70.30;;;19.38;64.13;96500.09;6106422;23;19921;-91
2023/08/10 06:02:02;;;;;;;;;;;20.00;70.40;;;19.40;64.10;96495.06;6083343;23;19921;-91
2023/08/10 06:04:53;;;;;;;;;;;20.10;70.40;;;19.46;64.09;96499.31;6108454;23;19928;-91
2023/08/10 06:07:34;;;;;;;;;;;20.10;70.40;;;19.46;64.14;96504.84;6107548;23;19928;-91
2023/08/10 06:10:48;;;;;;;;;;;;;;;;;;;;;
2023/08/10 06:13:34;;;;;;;;;;;20.10;70.00;;;19.48;63.28;96502.59;6083425;23;19928;-91
2023/08/10 06:16:17;;;;;;;;;;;20.10;69.70;;;19.47;63.37;96506.50;6081985;23;19921;-91
2023/08/10 06:18:58;;;;;;;;;;;20.10;69.70;;;19.49;63.38;96507.00;6107630;23;20341;-91
2023/08/10 06:21:41;;;;;;;;;;;20.10;69.60;;;19.49;63.58;96512.56;6107584;23;19928;-91
2023/08/10 06:24:25;;;;;;;;;;;20.10;69.60;;;19.50;63.47;96516.13;6105815;23;19920;-91
2023/08/10 06:30:51;;;;;;;;;;;20.20;69.60;;;19.49;63.50;96517.31;6106072;23;19921;-91
2023/08/10 06:33:45;;;;;;;;;;;20.10;69.50;;;19.48;63.50;96519.25;6107708;23;19932;-91
2023/08/10 06:36:38;;;;;;;;;;;20.20;69.40;;;19.47;63.35;96524.00;6108325;23;19928;-91
2023/08/10 06:39:24;;;;;;;;;;;20.10;69.50;;;19.48;63.58;96519.25;6107250;23;19921;-91
2023/08/10 06:42:10;;;;;;;;;;;20.10;69.50;;;19.47;63.38;96518.44;6108507;23;20375;-91
2023/08/10 06:47:57;;;;;;;;;;;20.20;69.40;;;19.48;63.14;96530.34;6107615;23;19928;-91
